Terminal Aerodrome Forecast
Issued by NWS

Home | Current Version | Previous Version | Text Only | Print | Product List | Glossary On
Versions: 1 2 3 4 5 6 7 8 9 10 11 12 13 14 15 16 17 18 19 20 21 22
000
FTUS43 KIND 310520
TAFLAF
TAF
KLAF 310520Z 3106/0106 00000KT 4SM BR SKC
      TEMPO 3109/3113 1 1/2SM BR BKN025
     FM311400 32003KT 4SM BR BKN015
     FM311500 32007KT P6SM OVC025
     FM311700 31007KT P6SM BKN050
     FM312300 36003KT P6SM BKN250
      AMD LTD TO CLD VIS AND WIND TIL 311300=

USA.gov is the U.S. government's official web portal to all federal, state and local government web resources and services.